Friday, November 24, 2017, 1:18 PM GMT
Back to Local

CWPE, Point Lepreau, N. B.

Location: , , Canada Lat: 45.067
Local Time: 1:18 PM GMT (13:18 GMT) Lon: -66.467
Time Zone: GMT Elev: 3 ft

Show me the last for .
Show Decoded

2017-11-24 13:00 METAR CWPE 241300Z AUTO 28007KT 03/M02 RMK AO1 SOG 02 3012 SLP134 T00271023 =
2017-11-24 12:00 METAR CWPE 241200Z AUTO 26006KT 02/M02 RMK AO1 18 SOG 02 3006 SLP128 T00201024 =
2017-11-24 11:00 METAR CWPE 241100Z AUTO 26006KT 02/M03 RMK AO1 SOG 02 2002 SLP123 T00151032 =
2017-11-24 10:00 METAR CWPE 241000Z AUTO 26006KT 01/M04 RMK AO1 SOG 02 6001 SLP122 T00121037 =
2017-11-24 09:00 METAR CWPE 240900Z AUTO 26005KT 01/M04 RMK AO1 SOG 01 1005 SLP122 T00081036 =
2017-11-24 08:00 METAR CWPE 240800Z AUTO 28005KT M00/M04 RMK AO1 SOG 01 0005 SLP121 T10031042 =
2017-11-24 07:00 METAR CWPE 240700Z AUTO 27004KT M01/M05 RMK AO1 SOG 01 3003 SLP123 T10071051 =
2017-11-24 06:00 METAR CWPE 240600Z AUTO 28004KT M01/M06 RMK AO1 SOG 01 5004 SLP117 T10091057 =
2017-11-24 05:00 METAR CWPE 240500Z AUTO 28004KT M01/M06 RMK AO1 SOG 01 8004 SLP116 T10141063 =
2017-11-24 04:00 METAR CWPE 240400Z AUTO 29007KT M02/M07 RMK AO1 SOG 01 7001 SLP121 T10161066 =
2017-11-24 03:00 METAR CWPE 240300Z AUTO 30007KT M02/M06 RMK AO1 SOG 02 5003 SLP121 T10181061 =
2017-11-24 02:00 METAR CWPE 240200Z AUTO 29004KT M02/M06 RMK AO1 SOG 01 7005 SLP121 T10161058 =
2017-11-24 01:00 METAR CWPE 240100Z AUTO 30006KT M02/M06 RMK AO1 SOG 01 8002 SLP122 T10161056 =
2017-11-24 00:00 METAR CWPE 240000Z AUTO 30006KT M01/M06 RMK AO1 SOG 01 0002 SLP125 T10141057 =
2017-11-23 23:00 METAR CWPE 232300Z AUTO 32004KT M01/M05 RMK AO1 SOG 01 1011 SLP125 T10131052 =
2017-11-23 22:00 METAR CWPE 232200Z AUTO 31004KT M01/M05 RMK AO1 SOG 01 1018 SLP123 T10061051 =
2017-11-23 21:00 METAR CWPE 232100Z AUTO 29005KT M00/M05 RMK AO1 SOG 02 3017 SLP122 T10031052 =
2017-11-23 20:00 METAR CWPE 232000Z AUTO 29005KT 01/M05 RMK AO1 18 SOG 02 3010 SLP114 T00081051 =
2017-11-23 19:00 METAR CWPE 231900Z AUTO 29008G18KT 01/M05 RMK AO1 18 SOG 02 5000 SLP105
                 T00121052 =
2017-11-23 18:00 METAR CWPE 231800Z AUTO 30007KT 02/M04 RMK AO1 SOG 02 5007 SLP105 T00181036 =
2017-11-23 17:00 METAR CWPE 231700Z AUTO 30007KT M00/M03 RMK AO1 18 SOG 02 0000 SLP104 T10031032
                 =
2017-11-23 16:00 METAR CWPE 231600Z AUTO 32011G19KT 01/M03 RMK AO1 21 SOG 02 0011 SLP105
                 T00061033 =
2017-11-23 15:00 METAR CWPE 231500Z AUTO 29011G22KT 01/M03 RMK AO1 22 SOG 02 1030 SLP112
                 T00121027 =
2017-11-23 14:00 METAR CWPE 231400Z AUTO 30010G17KT M00/M02 RMK AO1 24 SOG 02 1039 SLP104
                 T10041015 =

Support USWX by starting your Amazon purchase here.